»·PEaware :: N9730Y KSMO-KSBA

N9730Y :: KSMO-KSBA

FLIGHT INFORMATION

Flight Status: Arrived
Operator: Privately registered:
United States
More flights under this callsign
Pilot: Dave M. (3460)
Aircraft: Unknown
(A36)
More flights by this aircraft type
Origin: KSMO Santa Monica Mun
United States
Destination: KSBA Santa Barbara Mun
United States
More flights between these airports :: More routes between these airports
Route: +SMO V107 SADDE V299 VTU VTU282 KWANG
File this flight plan on PilotEdge
Remarks:
Altitude:
(Current/Filed)
6,000ft
Speed:
(Current/Filed)
140kts
Departed: 14-Sep-18 03:04 PM
Arrived: 14-Sep-18 03:37 PM
Distance/Time
Traveled:
73nm/0:32
Distance/Time
To Go:
Arrived

Flight Plot

Page will automatically refresh every two minutes.


Map Options




Map Legend


Flown Route
Filed Route
Departure Airport
Arrival Airport
Navaid (VOR, NDB)
Fix

Horizontal Profiles

Position Reports

Time Latitude Longitude Heading Altitude Ground
Speed
14-Sep-18 14:44 34.015969 -118.453337 75 139ft 0kts
14-Sep-18 14:45 34.015969 -118.453337 75 139ft 0kts
14-Sep-18 14:46 34.015969 -118.453337 75 139ft 0kts
14-Sep-18 14:47 34.015969 -118.453337 75 139ft 0kts
14-Sep-18 14:48 34.015969 -118.453337 75 139ft 0kts
14-Sep-18 14:49 34.015969 -118.453337 75 139ft 0kts
14-Sep-18 14:50 34.015969 -118.453337 75 139ft 0kts
14-Sep-18 14:51 34.015969 -118.453337 75 139ft 0kts
14-Sep-18 14:52 34.015969 -118.453337 75 139ft 0kts
14-Sep-18 14:53 34.015969 -118.453337 75 139ft 0kts
14-Sep-18 14:54 34.015969 -118.453337 75 139ft 0kts
14-Sep-18 14:55 34.015969 -118.453337 75 139ft 0kts
14-Sep-18 14:56 34.015969 -118.453337 75 139ft 0kts
14-Sep-18 14:57 34.015969 -118.453337 75 139ft 0kts
14-Sep-18 14:58 34.015969 -118.453337 75 139ft 0kts
14-Sep-18 14:59 34.016335 -118.451825 44 140ft 7kts
14-Sep-18 15:00 34.018493 -118.449241 45 153ft 13kts
14-Sep-18 15:01 34.020513 -118.447086 325 162ft 7kts
14-Sep-18 15:02 34.019743 -118.447768 179 161ft 0kts
14-Sep-18 15:03 34.019743 -118.447768 177 161ft 0kts
14-Sep-18 15:04 34.019742 -118.447768 177 161ft 0kts
14-Sep-18 15:05 34.019541 -118.447718 152 160ft 2kts
14-Sep-18 15:06 34.012423 -118.455430 227 311ft 90kts
14-Sep-18 15:07 34.005019 -118.485721 259 1626ft 99kts
14-Sep-18 15:08 34.004201 -118.518696 277 2885ft 101kts
14-Sep-18 15:09 34.007219 -118.552149 265 4069ft 98kts
14-Sep-18 15:10 34.006930 -118.569444 267 4640ft 100kts
14-Sep-18 15:11 34.008215 -118.596402 269 5482ft 100kts
14-Sep-18 15:12 34.017185 -118.627939 286 6012ft 134kts
14-Sep-18 15:13 34.025714 -118.661785 282 6002ft 158kts
14-Sep-18 15:14 34.033357 -118.693946 282 6007ft 163kts
14-Sep-18 15:15 34.044740 -118.742573 282 6007ft 165kts
14-Sep-18 15:16 34.057108 -118.795526 282 6027ft 164kts
14-Sep-18 15:17 34.069434 -118.848291 282 6028ft 163kts
14-Sep-18 15:18 34.081751 -118.900998 282 6029ft 163kts
14-Sep-18 15:19 34.093999 -118.953526 282 6028ft 162kts
14-Sep-18 15:20 34.105898 -119.004669 282 6025ft 162kts
14-Sep-18 15:21 34.119264 -119.056610 293 6034ft 163kts
14-Sep-18 15:22 34.139989 -119.105460 292 6024ft 163kts
14-Sep-18 15:23 34.160541 -119.154471 292 6024ft 163kts
14-Sep-18 15:24 34.180791 -119.202845 292 6024ft 162kts
14-Sep-18 15:25 34.201068 -119.251339 292 6025ft 161kts
14-Sep-18 15:26 34.221273 -119.299714 293 6026ft 161kts
14-Sep-18 15:27 34.241460 -119.348095 292 6026ft 161kts
14-Sep-18 15:28 34.261581 -119.396379 292 6026ft 161kts
14-Sep-18 15:29 34.281683 -119.444678 292 6026ft 161kts
14-Sep-18 15:30 34.301904 -119.493330 292 6024ft 162kts
14-Sep-18 15:31 34.321329 -119.545028 290 5188ft 158kts
14-Sep-18 15:32 34.339534 -119.590352 293 4240ft 145kts
14-Sep-18 15:33 34.357075 -119.635578 293 3325ft 153kts
14-Sep-18 15:34 34.374661 -119.681029 294 3107ft 151kts
14-Sep-18 15:35 34.391611 -119.726635 292 2298ft 126kts
14-Sep-18 15:36 34.405109 -119.762697 292 2117ft 108kts
14-Sep-18 15:37 34.416227 -119.793642 290 1300ft 99kts
14-Sep-18 15:38 34.426638 -119.824659 284 301ft 92kts
14-Sep-18 15:39 34.427763 -119.841372 299 13ft 12kts
14-Sep-18 15:40 34.429622 -119.842233 19 13ft 11kts
14-Sep-18 15:41 34.431085 -119.839073 64 13ft 0kts
14-Sep-18 15:42 34.431085 -119.839073 64 13ft 0kts
14-Sep-18 15:43 34.431085 -119.839073 64 13ft 0kts
14-Sep-18 15:44 34.431085 -119.839073 64 13ft 0kts

Navigation Log

Ident Type
Flight plan parsing failed, navigation log unavailable